Time;durP1;ratioP1;P1;durP2;ratioP2;P2;SDS_P1;SDS_P2;PMS_P1;PMS_P2;Temp;Humidity;BMP_temperature;BMP_pressure;BME280_temperature;BME280_humidity;BME280_pressure;Samples;Min_cycle;Max_cycle;Signal;HPM_P1;HPM_P2
2021/01/23 00:02:23;;;;;;;32.60;19.33;;;;;;;-0.26;90.22;98453.97;5118468;28;20477;-62
2021/01/23 00:04:49;;;;;;;23.87;18.43;;;;;;;-0.25;90.28;98453.00;5119858;28;20439;-62
2021/01/23 00:07:15;;;;;;;26.23;18.70;;;;;;;-0.14;90.30;98446.09;5118144;27;20466;-62
2021/01/23 00:09:42;;;;;;;23.90;19.03;;;;;;;-0.10;90.03;98440.50;5119267;28;20451;-62
2021/01/23 00:12:08;;;;;;;24.70;17.77;;;;;;;-0.13;89.90;98447.78;5119558;28;20477;-62
2021/01/23 00:14:35;;;;;;;24.27;18.23;;;;;;;-0.14;89.99;98438.22;5120119;28;20487;-62
2021/01/23 00:17:01;;;;;;;33.90;21.00;;;;;;;-0.10;89.74;98434.41;5120379;28;20466;-62
2021/01/23 00:19:28;;;;;;;28.33;20.50;;;;;;;-0.13;89.78;98430.22;5121326;28;20510;-62
2021/01/23 00:21:54;;;;;;;27.23;19.20;;;;;;;-0.10;89.57;98419.47;5122574;27;20478;-62
2021/01/23 00:24:20;;;;;;;35.00;22.57;;;;;;;-0.04;89.33;98424.25;5124993;28;20458;-62
2021/01/23 00:26:46;;;;;;;23.50;18.40;;;;;;;-0.10;89.04;98430.00;5124116;28;20473;-62
2021/01/23 00:29:12;;;;;;;27.47;19.07;;;;;;;-0.18;88.78;98421.03;5123408;28;20470;-62
2021/01/23 00:31:40;;;;;;;30.17;20.10;;;;;;;-0.33;89.53;98420.41;5123642;27;20491;-62
2021/01/23 00:34:06;;;;;;;24.50;19.43;;;;;;;-0.28;89.64;98421.75;5124481;28;20435;-62
2021/01/23 00:36:32;;;;;;;29.03;19.83;;;;;;;-0.44;89.75;98421.22;5123732;28;20478;-62
2021/01/23 00:38:59;;;;;;;25.13;18.07;;;;;;;-0.43;89.78;98412.41;5123822;28;20853;-62
2021/01/23 00:41:26;;;;;;;25.83;19.80;;;;;;;-0.35;89.66;98412.63;5122937;27;20496;-62
2021/01/23 00:43:53;;;;;;;28.00;18.90;;;;;;;-0.34;89.16;98419.56;5122577;28;20454;-62
2021/01/23 00:46:19;;;;;;;26.07;19.67;;;;;;;-0.24;88.94;98417.09;5123452;27;20474;-62
2021/01/23 00:48:46;;;;;;;23.80;17.80;;;;;;;-0.27;88.56;98417.31;5123711;28;20462;-62
2021/01/23 00:51:12;;;;;;;25.30;18.00;;;;;;;-0.27;88.71;98409.44;5122888;27;20466;-62
2021/01/23 00:53:38;;;;;;;25.00;18.70;;;;;;;-0.31;88.58;98413.22;5124057;28;20465;-62
2021/01/23 00:56:05;;;;;;;26.67;17.93;;;;;;;-0.27;88.32;98415.50;5122607;27;20492;-62
2021/01/23 00:58:31;;;;;;;26.43;19.07;;;;;;;-0.34;88.59;98421.38;5122571;28;20495;-62
2021/01/23 01:00:58;;;;;;;23.90;18.33;;;;;;;-0.44;89.31;98418.59;5122898;28;20478;-62
2021/01/23 01:03:24;;;;;;;23.90;18.63;;;;;;;-0.44;89.47;98421.22;5123505;28;20485;-62
2021/01/23 01:05:51;;;;;;;26.60;19.17;;;;;;;-0.35;89.31;98425.75;5122615;28;20621;-62
2021/01/23 01:08:17;;;;;;;26.60;18.80;;;;;;;-0.22;88.81;98437.00;5123507;28;20956;-61
2021/01/23 01:10:45;;;;;;;27.50;19.20;;;;;;;-0.10;87.89;98437.03;5122262;27;20474;-62
2021/01/23 01:13:12;;;;;;;26.73;19.13;;;;;;;-0.16;87.85;98433.06;5123011;28;20478;-62
2021/01/23 01:15:38;;;;;;;24.30;17.73;;;;;;;-0.20;88.35;98444.78;5122787;28;20492;-62
2021/01/23 01:18:04;;;;;;;27.23;19.80;;;;;;;-0.17;88.32;98436.66;5123229;28;20427;-62
2021/01/23 01:20:31;;;;;;;23.17;17.67;;;;;;;-0.28;88.69;98441.88;5122189;27;20474;-62
2021/01/23 01:22:58;;;;;;;24.50;18.27;;;;;;;-0.27;88.65;98443.56;5123519;28;20433;-62
2021/01/23 01:25:24;;;;;;;20.50;17.10;;;;;;;-0.27;88.53;98443.56;5122199;28;20530;-62
2021/01/23 01:27:50;;;;;;;23.10;18.97;;;;;;;-0.23;88.35;98442.38;5123297;28;20478;-62
2021/01/23 01:30:17;;;;;;;25.27;19.60;;;;;;;-0.42;88.79;98443.78;5122073;27;20484;-62
2021/01/23 01:32:43;;;;;;;24.33;18.13;;;;;;;-0.45;89.31;98445.78;5123271;28;20426;-62
2021/01/23 01:35:10;;;;;;;23.30;18.97;;;;;;;-0.33;89.19;98449.28;5121559;28;20960;-62
2021/01/23 01:37:36;;;;;;;23.67;18.07;;;;;;;-0.31;88.82;98445.59;5123955;28;20442;-61
2021/01/23 01:40:05;;;;;;;25.70;17.30;;;;;;;-0.37;89.11;98453.94;5122595;28;20481;-62
2021/01/23 01:42:31;;;;;;;32.20;19.20;;;;;;;-0.35;89.02;98448.56;5121589;28;20509;-62
2021/01/23 01:44:57;;;;;;;27.37;19.33;;;;;;;-0.44;89.32;98456.19;5122517;28;20481;-62
2021/01/23 01:47:23;;;;;;;21.77;18.30;;;;;;;-0.28;88.67;98453.25;5121479;28;20474;-62
2021/01/23 01:49:50;;;;;;;27.10;18.83;;;;;;;-0.26;88.43;98453.97;5122862;28;20480;-62
2021/01/23 01:52:16;;;;;;;23.70;19.13;;;;;;;-0.28;88.59;98462.91;5121258;28;20561;-62
2021/01/23 01:54:42;;;;;;;23.90;18.97;;;;;;;-0.30;88.68;98462.19;5122826;28;20850;-62
2021/01/23 01:57:09;;;;;;;32.33;19.30;;;;;;;-0.32;88.82;98462.28;5121234;28;20527;-62
2021/01/23 01:59:36;;;;;;;25.63;18.63;;;;;;;-0.20;89.97;98460.53;5122395;28;20520;-62
2021/01/23 02:02:10;;;;;;;27.83;18.97;;;;;;;-0.22;89.70;98462.44;5120705;27;20497;-62
2021/01/23 02:04:40;;;;;;;31.53;19.70;;;;;;;-0.26;90.76;98459.22;5109291;28;20442;-62
2021/01/23 02:07:12;;;;;;;30.40;20.60;;;;;;;-0.20;91.39;98468.41;5120680;27;21008;-62
2021/01/23 02:10:06;;;;;;;34.37;20.87;;;;;;;-0.11;91.11;98466.88;5122079;28;20489;-62
2021/01/23 02:12:41;;;;;;;27.47;19.77;;;;;;;0.01;90.34;98470.38;5120779;28;21143;-62
2021/01/23 02:15:12;;;;;;;29.13;20.30;;;;;;;-0.06;90.52;98470.81;5121345;27;20628;-62
2021/01/23 02:17:42;;;;;;;30.13;21.40;;;;;;;-0.08;90.61;98466.66;5122325;28;20953;-62
2021/01/23 02:20:51;;;;;;;30.90;22.30;;;;;;;-0.11;90.67;98470.34;5120942;28;20478;-62
2021/01/23 02:23:19;;;;;;;33.20;22.80;;;;;;;-0.07;91.03;98471.78;5106500;28;20539;-61
2021/01/23 02:25:58;;;;;;;32.63;21.50;;;;;;;-0.03;90.94;98478.47;5121137;28;20495;-62
2021/01/23 02:28:47;;;;;;;30.20;20.97;;;;;;;-0.10;90.75;98479.06;5121142;28;20490;-61
2021/01/23 02:31:15;;;;;;;27.13;19.83;;;;;;;-0.10;90.60;98473.81;5107723;27;20469;-62
2021/01/23 02:33:43;;;;;;;25.00;19.87;;;;;;;-0.15;90.30;98471.53;5122626;28;20446;-62
2021/01/23 02:36:09;;;;;;;29.03;21.47;;;;;;;0.06;89.40;98465.59;5120558;28;20475;-61
2021/01/23 02:38:36;;;;;;;31.17;19.43;;;;;;;0.07;89.33;98470.72;5122045;28;20504;-61
2021/01/23 02:41:02;;;;;;;32.40;22.37;;;;;;;0.12;89.29;98476.47;5120497;28;20514;-61
2021/01/23 02:43:29;;;;;;;28.47;22.80;;;;;;;0.09;90.02;98479.31;5120951;28;20485;-62
2021/01/23 02:45:55;;;;;;;30.53;20.97;;;;;;;-0.04;90.54;98487.28;5120783;27;20973;-61
2021/01/23 02:48:22;;;;;;;35.37;22.90;;;;;;;-0.05;90.92;98488.25;5122129;28;20435;-61
2021/01/23 02:50:48;;;;;;;31.97;24.00;;;;;;;-0.04;90.92;98489.09;5121097;27;20478;-61
2021/01/23 02:53:18;;;;;;;34.43;23.60;;;;;;;-0.03;91.19;98491.59;5122211;28;20475;-62
2021/01/23 02:55:46;;;;;;;34.40;22.40;;;;;;;-0.05;91.12;98496.16;5120373;28;20488;-62
2021/01/23 02:58:13;;;;;;;38.43;23.40;;;;;;;-0.08;91.40;98490.28;5121043;28;20474;-61
2021/01/23 03:00:40;;;;;;;37.23;24.83;;;;;;;-0.07;91.35;98495.44;5120626;27;20980;-61
2021/01/23 03:03:06;;;;;;;35.07;24.20;;;;;;;-0.03;91.19;98498.66;5121961;28;20442;-62
2021/01/23 03:05:34;;;;;;;33.73;22.47;;;;;;;0.02;90.93;98499.16;5120806;27;20532;-61
2021/01/23 03:08:00;;;;;;;31.03;19.90;;;;;;;0.03;91.18;98492.09;5121439;28;20473;-61
2021/01/23 03:10:35;;;;;;;32.30;22.17;;;;;;;0.06;91.08;98495.31;5120218;28;20466;-61
2021/01/23 03:13:01;;;;;;;35.30;22.17;;;;;;;0.16;90.23;98498.09;5120710;28;20454;-62
2021/01/23 03:15:27;;;;;;;34.00;22.60;;;;;;;0.24;89.60;98493.06;5120412;28;21060;-61
2021/01/23 03:17:54;;;;;;;41.13;25.40;;;;;;;0.49;89.36;98497.25;5121226;28;20463;-61
2021/01/23 03:20:20;;;;;;;42.37;23.63;;;;;;;0.56;88.85;98501.06;5120194;28;20486;-61
2021/01/23 03:22:47;;;;;;;31.50;21.37;;;;;;;0.63;88.32;98495.34;5121629;28;20470;-62
2021/01/23 03:25:13;;;;;;;38.90;25.63;;;;;;;0.58;88.61;98497.50;5120565;28;20527;-62
2021/01/23 03:27:39;;;;;;;34.70;21.90;;;;;;;0.68;88.01;98501.91;5121653;28;20453;-61
2021/01/23 03:30:07;;;;;;;34.30;20.63;;;;;;;0.78;87.43;98498.53;5119228;28;20474;-61
2021/01/23 03:32:33;;;;;;;31.93;20.27;;;;;;;0.74;87.59;98488.25;5121883;28;20450;-62
2021/01/23 03:34:59;;;;;;;33.63;21.40;;;;;;;0.72;87.60;98491.97;5121389;28;20489;-61
2021/01/23 03:37:25;;;;;;;30.10;20.40;;;;;;;0.83;87.13;98493.75;5120275;27;20642;-61
2021/01/23 03:39:52;;;;;;;31.10;19.40;;;;;;;0.75;87.01;98492.56;5121152;28;20489;-61
2021/01/23 03:42:18;;;;;;;26.77;18.90;;;;;;;0.80;86.99;98494.84;5119848;28;20470;-62
2021/01/23 03:44:45;;;;;;;33.70;20.47;;;;;;;0.77;87.30;98499.53;5120971;28;20522;-61
2021/01/23 03:47:11;;;;;;;28.40;17.80;;;;;;;0.73;87.53;98493.66;5119874;27;20478;-62
2021/01/23 03:49:37;;;;;;;26.80;17.80;;;;;;;0.58;87.74;98495.69;5121410;28;20475;-62
2021/01/23 03:52:04;;;;;;;24.40;18.40;;;;;;;0.55;88.14;98495.94;5119530;28;20485;-61
2021/01/23 03:54:30;;;;;;;25.10;18.47;;;;;;;0.49;88.54;98488.53;5121530;28;20438;-62
2021/01/23 03:56:57;;;;;;;24.00;17.23;;;;;;;0.43;88.69;98483.75;5122391;27;20492;-62
2021/01/23 03:59:23;;;;;;;26.90;19.33;;;;;;;0.47;88.41;98478.16;5124683;28;20524;-62
2021/01/23 04:01:49;;;;;;;27.90;18.70;;;;;;;0.49;88.21;98480.66;5123661;28;21071;-62
2021/01/23 04:04:15;;;;;;;27.63;18.97;;;;;;;0.44;88.63;98482.81;5125286;28;20484;-62
2021/01/23 04:06:42;;;;;;;32.03;18.90;;;;;;;0.55;88.25;98483.63;5123571;27;20497;-62
2021/01/23 04:09:08;;;;;;;28.60;18.50;;;;;;;0.65;87.79;98480.28;5124206;28;20446;-62
2021/01/23 04:11:34;;;;;;;31.70;19.30;;;;;;;0.66;87.66;98479.31;5123491;28;20473;-62
2021/01/23 04:14:01;;;;;;;29.17;19.77;;;;;;;0.68;87.42;98475.63;5123679;28;20453;-62
2021/01/23 04:16:28;;;;;;;23.80;17.23;;;;;;;0.81;86.98;98472.00;5123639;28;20498;-62
2021/01/23 04:18:54;;;;;;;27.50;17.70;;;;;;;0.83;86.88;98477.97;5124194;28;20446;-62
2021/01/23 04:21:20;;;;;;;30.17;17.33;;;;;;;0.81;86.80;98467.56;5123398;27;20481;-61
2021/01/23 04:23:46;;;;;;;24.47;16.20;;;;;;;0.86;86.70;98461.94;5124700;28;20430;-62
2021/01/23 04:26:12;;;;;;;27.40;15.63;;;;;;;0.97;86.13;98467.16;5122925;28;20523;-62
2021/01/23 04:28:38;;;;;;;34.40;17.73;;;;;;;1.02;85.91;98459.75;5124300;27;20453;-61
2021/01/23 04:31:06;;;;;;;23.77;17.03;;;;;;;1.01;85.97;98454.59;5123243;27;21028;-61
2021/01/23 04:33:34;;;;;;;25.40;16.87;;;;;;;1.04;85.65;98444.69;5124310;28;20953;-62
2021/01/23 04:36:00;;;;;;;22.80;16.23;;;;;;;0.98;85.92;98445.16;5122635;28;20477;-62
2021/01/23 04:38:26;;;;;;;23.80;14.90;;;;;;;1.06;85.54;98452.44;5124831;28;20487;-62
2021/01/23 04:40:54;;;;;;;30.60;15.80;;;;;;;1.11;85.24;98451.13;5122244;27;20506;-62
2021/01/23 04:43:21;;;;;;;24.50;15.63;;;;;;;1.06;85.31;98448.03;5123320;28;20465;-61
2021/01/23 04:45:47;;;;;;;27.80;16.00;;;;;;;1.07;85.33;98438.31;5123332;28;21003;-61
2021/01/23 04:48:15;;;;;;;23.40;15.90;;;;;;;1.08;85.48;98437.38;5124672;28;20477;-62
2021/01/23 04:50:41;;;;;;;17.57;14.07;;;;;;;1.00;85.95;98435.34;5122773;27;20512;-61
2021/01/23 04:53:07;;;;;;;24.10;15.40;;;;;;;1.03;85.57;98437.75;5124515;28;20459;-62
2021/01/23 04:55:34;;;;;;;24.00;14.37;;;;;;;1.02;85.47;98428.16;5122725;28;20465;-61
2021/01/23 04:58:00;;;;;;;24.03;14.70;;;;;;;1.06;85.61;98424.34;5124021;28;21054;-62
2021/01/23 05:00:26;;;;;;;24.33;17.03;;;;;;;1.00;85.74;98435.34;5122622;27;20470;-62
2021/01/23 05:03:00;;;;;;;24.27;14.77;;;;;;;1.04;85.47;98431.53;5124373;28;20454;-62
2021/01/23 05:05:27;;;;;;;21.23;16.23;;;;;;;0.91;86.02;98436.09;5122556;27;20490;-62
2021/01/23 05:07:53;;;;;;;27.17;15.00;;;;;;;0.85;86.10;98432.19;5123518;28;20431;-62
2021/01/23 05:10:23;;;;;;;20.03;14.17;;;;;;;0.84;86.11;98442.81;5122089;28;20470;-62
2021/01/23 05:12:50;;;;;;;24.83;14.50;;;;;;;0.79;86.45;98437.09;5123354;28;20454;-62
2021/01/23 05:15:21;;;;;;;25.43;15.10;;;;;;;0.65;86.95;98430.31;5121823;28;20532;-61
2021/01/23 05:17:52;;;;;;;23.90;14.70;;;;;;;0.61;86.99;98429.72;5124516;28;20419;-62
2021/01/23 05:20:31;;;;;;;21.10;16.40;;;;;;;0.52;87.40;98423.41;5112040;28;20555;-62
2021/01/23 05:22:57;;;;;;;28.13;16.30;;;;;;;0.45;87.66;98416.97;5102863;28;20446;-62
2021/01/23 05:25:26;;;;;;;23.67;15.37;;;;;;;0.51;87.41;98415.63;5121650;28;20446;-62
2021/01/23 05:27:52;;;;;;;29.33;16.17;;;;;;;0.49;87.50;98410.50;5123578;27;20437;-62
2021/01/23 05:30:19;;;;;;;23.67;14.27;;;;;;;0.32;88.04;98411.81;5121640;27;20477;-62
2021/01/23 05:32:45;;;;;;;30.20;16.40;;;;;;;0.28;88.56;98413.03;5123869;28;20535;-62
2021/01/23 05:35:16;;;;;;;25.03;14.90;;;;;;;0.22;88.71;98410.88;5121914;28;20969;-62
2021/01/23 05:37:43;;;;;;;24.93;16.40;;;;;;;0.21;88.91;98413.63;5123826;28;20788;-62
2021/01/23 05:40:09;;;;;;;32.20;16.90;;;;;;;0.33;88.19;98400.38;5121210;28;20486;-62
2021/01/23 05:42:42;;;;;;;24.37;15.83;;;;;;;0.37;88.14;98398.31;5122557;28;20434;-62
2021/01/23 05:45:11;;;;;;;33.23;16.60;;;;;;;0.39;87.88;98398.22;5121647;27;20457;-62
2021/01/23 05:47:37;;;;;;;22.70;16.03;;;;;;;0.34;87.92;98401.19;5123415;28;20466;-62
2021/01/23 05:50:05;;;;;;;26.90;16.30;;;;;;;0.25;88.37;98397.50;5122936;28;20450;-62
2021/01/23 05:52:31;;;;;;;27.73;16.57;;;;;;;0.23;88.32;98399.41;5121678;28;20551;-62
2021/01/23 05:54:58;;;;;;;29.17;15.00;;;;;;;0.29;88.16;98401.53;5122881;28;20968;-62
2021/01/23 05:57:25;;;;;;;23.60;15.37;;;;;;;0.41;87.81;98399.75;5121360;27;21000;-62
2021/01/23 05:59:51;;;;;;;25.50;15.90;;;;;;;0.48;87.25;98402.72;5122020;28;20482;-63
2021/01/23 06:02:18;;;;;;;24.60;14.77;;;;;;;0.37;87.65;98407.03;5121027;27;20517;-62
2021/01/23 06:04:48;;;;;;;23.10;15.50;;;;;;;0.24;87.82;98408.97;5123355;28;20441;-62
2021/01/23 06:07:47;;;;;;;29.97;16.37;;;;;;;0.23;88.18;98404.69;5120833;27;20485;-62
2021/01/23 06:10:42;;;;;;;29.67;15.57;;;;;;;0.35;87.79;98402.88;5120938;28;20470;-62
2021/01/23 06:13:42;;;;;;;20.97;13.47;;;;;;;0.37;87.36;98393.91;5121571;28;20457;-62
2021/01/23 06:16:44;;;;;;;22.63;12.90;;;;;;;0.32;87.66;98395.22;5121529;28;20473;-62
2021/01/23 06:19:38;;;;;;;26.23;14.87;;;;;;;0.31;87.54;98389.16;5101329;28;20449;-62
2021/01/23 06:22:05;;;;;;;26.50;13.70;;;;;;;0.31;87.55;98398.81;5105293;28;20549;-62
2021/01/23 06:24:50;;;;;;;25.10;14.10;;;;;;;0.32;87.13;98387.34;5122423;28;20438;-62
2021/01/23 06:27:17;;;;;;;22.60;13.70;;;;;;;0.29;87.31;98395.47;5121033;27;20497;-62
2021/01/23 06:29:44;;;;;;;24.83;15.20;;;;;;;0.33;87.43;98386.38;5121649;28;20530;-62
2021/01/23 06:32:30;;;;;;;26.67;15.07;;;;;;;0.30;87.38;98384.84;5100356;28;20542;-62
2021/01/23 06:34:58;;;;;;;28.90;15.17;;;;;;;0.20;87.68;98381.25;5111512;28;20473;-62
2021/01/23 06:37:28;;;;;;;29.07;15.50;;;;;;;0.21;87.81;98392.59;5100661;28;20529;-62
2021/01/23 06:40:02;;;;;;;22.93;14.03;;;;;;;0.17;87.48;98399.88;5115665;28;20485;-62
2021/01/23 06:42:30;;;;;;;32.83;17.10;;;;;;;0.30;87.07;98405.84;5120650;28;20524;-62
2021/01/23 06:44:56;;;;;;;33.73;16.27;;;;;;;0.26;87.20;98395.69;5121889;28;20469;-62
2021/01/23 06:47:22;;;;;;;23.90;15.70;;;;;;;0.24;87.24;98403.69;5121142;27;20494;-62
2021/01/23 06:49:48;;;;;;;24.93;14.87;;;;;;;0.14;87.50;98408.00;5121400;28;20495;-62
2021/01/23 06:52:14;;;;;;;21.60;14.20;;;;;;;0.22;87.09;98402.16;5120934;27;20501;-62
2021/01/23 06:54:46;;;;;;;25.00;14.17;;;;;;;0.15;87.16;98399.19;5122009;28;20951;-62
2021/01/23 06:57:12;;;;;;;25.23;14.90;;;;;;;0.15;87.10;98400.00;5100007;28;20613;-62
2021/01/23 06:59:39;;;;;;;27.03;14.93;;;;;;;0.14;87.24;98400.13;5116064;28;20514;-62
2021/01/23 07:02:06;;;;;;;23.43;15.27;;;;;;;0.17;87.13;98398.13;5120411;28;21004;-62
2021/01/23 07:04:33;;;;;;;21.47;13.50;;;;;;;0.12;86.90;98404.66;5121324;28;20477;-62
2021/01/23 07:07:01;;;;;;;21.47;12.30;;;;;;;0.16;86.75;98403.50;5120520;28;20493;-61
2021/01/23 07:09:47;;;;;;;21.07;13.83;;;;;;;0.14;86.79;98405.38;5121430;28;20450;-61
2021/01/23 07:12:13;;;;;;;25.70;15.00;;;;;;;0.18;86.35;98404.19;5120501;28;20476;-61
2021/01/23 07:14:44;;;;;;;32.83;16.43;;;;;;;0.06;87.08;98395.47;5121641;28;20474;-62
2021/01/23 07:17:13;;;;;;;25.47;14.80;;;;;;;0.02;87.39;98393.19;5120100;28;20477;-61
2021/01/23 07:19:40;;;;;;;26.27;16.40;;;;;;;0.11;86.96;98393.34;5099348;28;20486;-61
2021/01/23 07:22:06;;;;;;;24.43;14.53;;;;;;;0.07;86.80;98397.16;5112951;28;20484;-61
2021/01/23 07:24:34;;;;;;;17.53;12.77;;;;;;;0.10;86.64;98394.28;5118971;28;20575;-61
2021/01/23 07:27:00;;;;;;;25.10;13.80;;;;;;;0.12;86.45;98389.75;5117405;27;20539;-61
2021/01/23 07:29:26;;;;;;;25.47;18.70;;;;;;;0.20;86.01;98399.66;5118181;28;20543;-61
2021/01/23 07:31:55;;;;;;;23.67;16.63;;;;;;;0.30;85.35;98397.97;5115445;28;20474;-61
2021/01/23 07:34:21;;;;;;;23.00;13.20;;;;;;;0.31;85.41;98409.31;5102854;28;20464;-62
2021/01/23 07:36:48;;;;;;;23.17;13.93;;;;;;;0.60;84.22;98407.00;5101615;28;20807;-62
2021/01/23 07:39:15;;;;;;;20.30;12.70;;;;;;;0.77;85.08;98410.09;5111719;28;20434;-62
2021/01/23 07:41:47;;;;;;;20.43;15.23;;;;;;;0.78;84.53;98411.75;5121198;27;20481;-62
2021/01/23 07:44:13;;;;;;;18.93;12.87;;;;;;;0.65;83.68;98404.84;5121660;28;20450;-62
2021/01/23 07:46:41;;;;;;;32.43;24.17;;;;;;;1.26;82.81;98400.78;5121059;27;20478;-60
2021/01/23 07:49:09;;;;;;;32.13;21.93;;;;;;;0.96;82.63;98401.53;5120612;28;20499;-60
2021/01/23 07:51:36;;;;;;;22.73;16.13;;;;;;;0.86;82.47;98393.53;5121536;27;21056;-61
2021/01/23 07:54:09;;;;;;;42.77;31.80;;;;;;;0.75;83.29;98386.53;5110248;28;20985;-61
2021/01/23 07:56:36;;;;;;;19.17;15.00;;;;;;;0.73;83.06;98384.03;5110916;28;20493;-61
2021/01/23 07:59:03;;;;;;;16.17;11.53;;;;;;;0.67;83.38;98397.66;5121438;28;20488;-60
2021/01/23 08:01:29;;;;;;;23.53;13.00;;;;;;;0.60;83.80;98395.66;5120933;28;20481;-60
2021/01/23 08:03:55;;;;;;;16.97;11.47;;;;;;;0.63;83.87;98395.41;5122613;28;20457;-60
2021/01/23 08:06:23;;;;;;;17.50;11.50;;;;;;;0.71;83.25;98398.25;5120981;27;20481;-60
2021/01/23 08:08:50;;;;;;;17.63;11.67;;;;;;;0.86;82.47;98394.38;5121273;27;20461;-64
2021/01/23 08:11:39;;;;;;;32.57;22.23;;;;;;;0.99;82.29;98396.84;5120090;28;20466;-63
2021/01/23 08:14:12;;;;;;;33.73;24.30;;;;;;;1.03;82.16;98393.00;5117216;28;20472;-64
2021/01/23 08:16:52;;;;;;;68.07;49.73;;;;;;;1.18;81.82;98397.97;5118595;27;20511;-63
2021/01/23 08:19:18;;;;;;;21.27;13.77;;;;;;;1.24;81.23;98394.84;5116579;27;20519;-63
2021/01/23 08:22:06;;;;;;;22.13;12.67;;;;;;;1.35;81.33;98389.50;5122375;27;20498;-64
2021/01/23 08:24:32;;;;;;;17.13;12.60;;;;;;;1.53;80.59;98402.06;5123714;28;20464;-63
2021/01/23 08:27:15;;;;;;;19.67;11.43;;;;;;;1.46;80.55;98402.63;5123526;28;20473;-64
2021/01/23 08:29:42;;;;;;;19.20;10.03;;;;;;;1.63;80.53;98401.19;5117835;28;20483;-64
2021/01/23 08:32:08;;;;;;;16.20;10.63;;;;;;;1.65;79.96;98408.94;5121649;27;20481;-63
2021/01/23 08:34:34;;;;;;;14.33;9.17;;;;;;;1.79;79.49;98408.63;5124860;28;20426;-63
2021/01/23 08:37:01;;;;;;;15.83;9.20;;;;;;;1.84;79.12;98403.81;5116502;28;21027;-64
2021/01/23 08:39:28;;;;;;;15.50;9.33;;;;;;;1.85;79.07;98402.00;5123427;28;20518;-64
2021/01/23 08:41:55;;;;;;;15.77;8.87;;;;;;;1.98;78.59;98401.78;5121438;28;20557;-64
2021/01/23 08:44:21;;;;;;;13.57;8.03;;;;;;;2.13;78.62;98408.38;5122448;28;20450;-64
2021/01/23 08:46:47;;;;;;;12.70;8.77;;;;;;;2.19;77.35;98402.56;5122215;28;20470;-64
2021/01/23 08:49:14;;;;;;;12.17;7.67;;;;;;;2.34;76.71;98410.13;5123704;28;20446;-63
2021/01/23 08:51:40;;;;;;;12.30;8.50;;;;;;;2.38;76.62;98406.25;5121772;27;20493;-64
2021/01/23 08:54:07;;;;;;;12.03;7.03;;;;;;;2.38;76.84;98411.53;5118777;28;20964;-64
2021/01/23 08:56:34;;;;;;;14.53;7.07;;;;;;;2.43;76.62;98406.66;5116012;28;20485;-64
2021/01/23 08:59:00;;;;;;;12.67;7.57;;;;;;;2.30;76.93;98408.72;5115367;28;20486;-64
2021/01/23 09:01:26;;;;;;;15.93;8.33;;;;;;;2.45;76.59;98402.13;5120926;27;20535;-64
2021/01/23 09:03:53;;;;;;;11.13;8.40;;;;;;;2.42;76.21;98408.47;5121638;28;20445;-64
2021/01/23 09:06:19;;;;;;;9.30;7.27;;;;;;;2.51;76.47;98408.66;5120056;28;20978;-64
2021/01/23 09:08:45;;;;;;;10.57;7.33;;;;;;;2.45;76.70;98408.22;5122440;28;20844;-65
2021/01/23 09:11:12;;;;;;;15.93;7.67;;;;;;;2.47;77.41;98402.81;5120441;28;20567;-64
2021/01/23 09:13:39;;;;;;;13.77;8.20;;;;;;;2.47;79.15;98400.16;5115009;28;20450;-64
2021/01/23 09:16:05;;;;;;;11.53;8.00;;;;;;;2.51;79.07;98404.19;5121240;27;20474;-64
2021/01/23 09:18:32;;;;;;;13.60;8.60;;;;;;;2.43;80.53;98411.94;5121514;28;20472;-64
2021/01/23 09:20:59;;;;;;;14.97;8.63;;;;;;;2.37;80.32;98404.56;5117939;28;20822;-64
2021/01/23 09:23:25;;;;;;;14.13;9.27;;;;;;;2.35;81.28;98401.25;5121356;28;20512;-64
2021/01/23 09:25:51;;;;;;;15.80;10.27;;;;;;;2.25;82.65;98398.56;5119682;27;20577;-64
2021/01/23 09:28:18;;;;;;;14.80;8.20;;;;;;;2.26;81.36;98408.16;5121768;28;20911;-64
2021/01/23 09:30:45;;;;;;;10.77;8.20;;;;;;;2.17;81.88;98409.78;5119641;28;20466;-64
2021/01/23 09:33:11;;;;;;;11.73;7.90;;;;;;;2.26;81.95;98397.59;5120939;28;20516;-64
2021/01/23 09:35:37;;;;;;;11.47;8.67;;;;;;;2.29;81.57;98404.41;5120729;28;20488;-64
2021/01/23 09:38:04;;;;;;;13.53;8.87;;;;;;;2.40;81.37;98394.59;5121876;28;20445;-64
2021/01/23 09:40:30;;;;;;;12.50;9.10;;;;;;;2.71;80.23;98394.53;5118557;28;20470;-64
2021/01/23 09:42:56;;;;;;;9.67;7.63;;;;;;;3.35;78.41;98398.44;5120732;28;20446;-63
2021/01/23 09:45:22;;;;;;;12.20;8.20;;;;;;;3.74;75.43;98384.34;5120462;28;20454;-64
2021/01/23 09:47:49;;;;;;;9.03;6.90;;;;;;;3.28;76.59;98385.94;5120200;28;20450;-63
2021/01/23 09:50:18;;;;;;;11.40;7.17;;;;;;;4.29;73.56;98392.34;5120179;28;20442;-64
2021/01/23 09:52:45;;;;;;;11.80;7.77;;;;;;;4.63;72.55;98388.25;5118775;28;20450;-63
2021/01/23 09:55:12;;;;;;;8.83;6.93;;;;;;;4.94;70.42;98390.56;5120267;27;20438;-63
2021/01/23 09:57:39;;;;;;;10.03;6.17;;;;;;;5.12;69.12;98393.22;5121054;28;20580;-63
2021/01/23 10:00:06;;;;;;;13.00;6.80;;;;;;;4.18;71.55;98392.53;5111367;27;20486;-62
2021/01/23 10:02:34;;;;;;;8.40;5.87;;;;;;;3.79;73.45;98392.66;5115308;27;20469;-62
2021/01/23 10:05:01;;;;;;;9.77;7.20;;;;;;;3.69;72.85;98390.03;5119292;28;20822;-61
2021/01/23 10:07:27;;;;;;;10.80;7.50;;;;;;;3.55;74.34;98390.50;5117189;27;20501;-60
2021/01/23 10:09:54;;;;;;;7.00;6.30;;;;;;;3.55;74.35;98388.69;5119458;28;20445;-61
2021/01/23 10:12:20;;;;;;;10.50;6.83;;;;;;;3.58;74.51;98393.69;5118037;28;20483;-59
2021/01/23 10:14:46;;;;;;;13.53;7.10;;;;;;;3.36;74.63;98388.72;5118674;28;20454;-60
2021/01/23 10:17:12;;;;;;;12.27;6.57;;;;;;;3.39;74.85;98383.97;5117579;27;20490;-60
2021/01/23 10:19:39;;;;;;;8.83;6.47;;;;;;;3.63;74.15;98376.56;5119423;28;21438;-60
2021/01/23 10:22:06;;;;;;;14.63;6.90;;;;;;;4.10;72.15;98381.84;5117537;27;20474;-60
2021/01/23 10:24:32;;;;;;;10.33;6.53;;;;;;;4.37;70.76;98381.03;5119198;28;20445;-60
2021/01/23 10:26:58;;;;;;;7.90;6.40;;;;;;;4.50;71.05;98383.34;5118724;28;20481;-60
2021/01/23 10:29:24;;;;;;;7.93;6.60;;;;;;;4.68;71.21;98388.66;5102113;28;20458;-61
2021/01/23 10:31:50;;;;;;;8.80;5.73;;;;;;;5.07;68.35;98375.97;5112661;27;20508;-60
2021/01/23 10:34:17;;;;;;;8.23;7.40;;;;;;;4.65;69.57;98378.34;5118925;28;20446;-62
2021/01/23 10:36:43;;;;;;;8.70;5.60;;;;;;;4.81;69.81;98380.34;5117033;27;20498;-63
2021/01/23 10:39:10;;;;;;;8.30;5.70;;;;;;;4.76;69.57;98372.03;5119017;28;20446;-61
2021/01/23 10:41:36;;;;;;;8.70;6.20;;;;;;;4.07;71.50;98377.69;5114804;28;20466;-61
2021/01/23 10:44:02;;;;;;;10.20;6.67;;;;;;;4.14;71.92;98367.34;5110838;28;20450;-61
2021/01/23 10:46:30;;;;;;;7.97;5.80;;;;;;;4.65;70.78;98373.91;5116856;27;20474;-61
2021/01/23 10:48:56;;;;;;;8.20;6.50;;;;;;;4.60;70.43;98364.72;5120792;28;20453;-61
2021/01/23 10:51:22;;;;;;;9.57;6.97;;;;;;;4.49;71.06;98366.59;5117726;27;20474;-62
2021/01/23 10:53:48;;;;;;;8.10;6.70;;;;;;;4.69;70.89;98361.22;5116608;28;20495;-61
2021/01/23 10:56:16;;;;;;;8.80;6.40;;;;;;;4.77;70.69;98358.63;5116869;28;20677;-61
2021/01/23 10:58:42;;;;;;;8.13;6.37;;;;;;;4.62;70.41;98352.22;5118566;28;20850;-61
2021/01/23 11:01:09;;;;;;;9.50;5.80;;;;;;;4.65;71.25;98362.47;5117239;28;20711;-61
2021/01/23 11:03:35;;;;;;;8.40;6.90;;;;;;;4.15;72.03;98355.81;5117611;28;20454;-61
2021/01/23 11:06:01;;;;;;;8.37;6.80;;;;;;;4.11;72.46;98359.72;5113503;28;20557;-61
2021/01/23 11:08:27;;;;;;;9.83;6.43;;;;;;;4.01;73.21;98354.47;5110268;28;20466;-61
2021/01/23 11:10:54;;;;;;;10.27;6.83;;;;;;;3.80;74.07;98352.03;5118850;28;20489;-61
2021/01/23 11:13:21;;;;;;;8.07;6.30;;;;;;;3.75;74.85;98355.13;5104655;28;20447;-61
2021/01/23 11:15:47;;;;;;;9.90;6.43;;;;;;;3.71;74.84;98348.44;5116050;28;20546;-61
2021/01/23 11:18:13;;;;;;;9.33;6.40;;;;;;;3.79;74.93;98354.84;5120851;28;20444;-61
2021/01/23 11:20:39;;;;;;;7.47;6.60;;;;;;;3.80;75.26;98351.19;5116918;27;20501;-61
2021/01/23 11:23:06;;;;;;;8.30;6.33;;;;;;;3.75;75.26;98344.53;5106664;28;20451;-59
2021/01/23 11:25:32;;;;;;;6.93;5.97;;;;;;;3.69;75.14;98341.66;5102521;28;20478;-60
2021/01/23 11:27:58;;;;;;;9.93;7.63;;;;;;;3.76;75.59;98338.25;5120617;28;20445;-60
2021/01/23 11:30:26;;;;;;;7.87;7.17;;;;;;;3.73;74.88;98343.00;5109365;28;20494;-61
2021/01/23 11:32:52;;;;;;;8.70;6.20;;;;;;;3.84;74.73;98339.38;5099515;28;20886;-61